Currently 68°F in Murrieta, California, USA
68°F
72°F / 68°F
calm
0.00"
Tuesday, August 16, 2022 3:18 AM PDT

Murrieta, California Weather Summary
Last 36 Hours

Temperature Winds Hourly Humidity Dewpoint
Time Report Norm Report Norm Max Gusts Precip. Rpt. Norm Rpt. Norm Pressure
1Tue 03:18 AM  68.1°F  64°F  calm  1 mph  none  0.00"  69%  82%  57°F  58°F  N/A
3Tue 03:15 AM  68.0°F  64°F  calm  1 mph  none  ----  69%  82%  57°F  58°F  N/A
Tue 03:00 AM  68.5°F  64°F  calm  1 mph  none  0.00"  68%  81%  57°F  58°F  N/A
Tue 02:00 AM  69.7°F  65°F  calm  1 mph  none  0.00"  64%  80%  57°F  59°F  N/A
Tue 01:00 AM  71.3°F  66°F  calm  2 mph  none  0.00"  64%  79%  58°F  59°F  N/A
2Tue 12:44 AM  71.8°F  66°F  calm  1 mph  none  ----  63%  78%  58°F  59°F  N/A
Tue 12:00 AM  70.5°F  67°F  calm  2 mph  none  0.00"  70%  77%  60°F  60°F  N/A
Mon 11:00 PM  71.5°F  68°F  calm  2 mph  none  0.00"  73%  77%  62°F  60°F  N/A
Mon 10:00 PM  73.8°F  70°F  calm  3 mph  none  0.00"  70%  76%  63°F  61°F  N/A
Mon 09:00 PM  73.7°F  71°F  calm  5 mph  none  0.00"  73%  73%  64°F  62°F  N/A
Mon 08:00 PM  76.2°F  74°F  calm  8 mph  none  0.00"  67%  67%  64°F  62°F  N/A
Mon 07:00 PM  80.5°F  78°F  calm  8 mph  none  0.00"  55%  57%  62°F  61°F  N/A
Mon 06:00 PM  82.6°F  82°F  calm  10 mph  none  0.00"  51%  48%  62°F  59°F  N/A
Mon 05:00 PM  89.6°F  85°F  calm  11 mph  none  0.00"  41%  42%  62°F  58°F  N/A
Mon 04:00 PM  93.2°F  87°F  calm  11 mph  none  0.00"  30%  38%  56°F  58°F  N/A
Mon 03:00 PM  95.7°F  89°F  calm  11 mph  none  0.00"  25%  36%  53°F  58°F  N/A
Mon 02:00 PM  95.4°F  89°F  calm  10 mph  none  0.00"  21%  35%  49°F  57°F  N/A
Mon 01:00 PM  96.2°F  89°F  calm  9 mph  none  0.00"  20%  36%  47°F  57°F  N/A
Mon 12:00 PM  94.1°F  88°F  calm  6 mph  none  0.00"  23%  38%  49°F  58°F  N/A
Mon 11:00 AM  90.8°F  84°F  calm  4 mph  none  0.00"  29%  45%  53°F  60°F  N/A
Mon 10:00 AM  87.5°F  80°F  calm  2 mph  none  0.00"  32%  56%  53°F  62°F  N/A
Mon 09:00 AM  80.4°F  74°F  calm  1 mph  none  0.00"  47%  68%  58°F  63°F  N/A
Mon 08:00 AM  74.1°F  69°F  calm  calm  none  0.00"  60%  78%  59°F  61°F  N/A
Mon 07:00 AM  67.6°F  64°F  calm  1 mph  none  0.00"  67%  83%  56°F  58°F  N/A
Mon 06:00 AM  65.6°F  63°F  calm  1 mph  none  0.00"  71%  84%  56°F  58°F  N/A
Mon 05:00 AM  67.0°F  63°F  calm  1 mph  none  0.00"  70%  83%  57°F  58°F  N/A
Mon 04:00 AM  68.9°F  64°F  calm  1 mph  none  0.00"  64%  82%  56°F  58°F  N/A
Mon 03:00 AM  68.7°F  64°F  calm  1 mph  none  0.00"  66%  81%  56°F  58°F  N/A
Mon 02:00 AM  69.3°F  65°F  calm  1 mph  none  0.00"  64%  80%  56°F  59°F  N/A
Mon 01:00 AM  71.9°F  66°F  calm  1 mph  none  0.00"  61%  78%  57°F  59°F  N/A
Mon 12:00 AM  72.4°F  67°F  calm  2 mph  none  0.00"  63%  77%  59°F  60°F  N/A
Sun 11:00 PM  73.3°F  68°F  calm  2 mph  none  0.00"  62%  76%  59°F  60°F  N/A
Sun 10:00 PM  74.1°F  70°F  calm  3 mph  none  0.00"  64%  75%  61°F  61°F  N/A
Sun 09:00 PM  74.9°F  71°F  calm  5 mph  none  0.00"  64%  73%  62°F  62°F  N/A
Sun 08:00 PM  76.5°F  74°F  calm  8 mph  none  0.00"  62%  67%  62°F  62°F  N/A
Sun 07:00 PM  82.0°F  78°F  calm  8 mph  none  0.00"  48%  57%  59°F  61°F  N/A
Sun 06:00 PM  84.7°F  82°F  calm  10 mph  none  0.00"  47%  48%  62°F  59°F  N/A
Sun 05:00 PM  88.9°F  85°F  calm  11 mph  none  0.00"  39%  41%  60°F  58°F  N/A
Sun 04:00 PM  91.7°F  87°F  calm  11 mph  none  0.00"  34%  38%  58°F  58°F  N/A

  1. Current weather data. No green row appears if the current weather data is also the high or low for the current day.
  2. High temperature for the current day.
  3. Low temperature for the current day.

The Murrieta weather pages are a service of WeatherCurrents. Murrieta, California is located in the Temecula Valley, in southwestern Riverside County, at the junctions of the Interstate 15 and 215 highways.
Copyright ©2022  WeatherCurrents. All rights reserved. - Submit questions and comments - Privacy Policy

This page automatically refreshes every 10 minutes.